Home   Weather   Germany   Bottrop   Past weeks
Flag for Germany

Past Weather in Bottrop, North Rhine-Westphalia, Germany — Yesterday and Last 2 Weeks

Currently: 54 °F. Clear. (Weather station: Duesseldorf, Germany). See more current weather

Past Weather in Bottrop — Graph

°F

Bottrop Temperature Yesterday

Maximum temperature yesterday: 68 °F (at 2:20 pm)
Minimum temperature yesterday: 52 °F (at 1:20 am)
Average temperature yesterday: 58 °F

High & Low Weather Summary for the Past Weeks

 TemperatureHumidityPressure
High68 °F (Feb 24, 2:20 pm)100% (Feb 16, 4:20 am)30.72 "Hg (Feb 16, 4:20 am)
Low9 °F (Feb 11, 7:20 am)33% (Feb 14, 1:50 pm)29.71 "Hg (Feb 18, 5:20 pm)
Average41 °F69%30.20 "Hg
* Reported Feb 9 11:20 pm — Feb 24 11:20 pm, Bottrop. Weather by CustomWeather, © 2021

Note: Actual official high and low records may vary slightly from our data, if they occured in-between our weather recording intervals... More about our weather records

Bottrop Weather History for the Previous 24 Hours

Scroll right to see more
 ConditionsComfort  
Time TempWeatherWind HumidityBarometerVisibility
11:20 pm
Wed, Feb 24
54 °FClear.10 mph72%30.33 "Hg10 mi
10:50 pm54 °FClear.8 mph72%30.33 "Hg10 mi
10:20 pm54 °FClear.7 mph72%30.33 "Hg10 mi
9:50 pm57 °FClear.8 mph67%30.33 "Hg10 mi
9:20 pm57 °FClear.13 mph67%30.33 "Hg10 mi
8:50 pm59 °FClear.14 mph63%30.33 "Hg10 mi
8:20 pm61 °FClear.15 mph59%30.33 "Hg10 mi
7:50 pm61 °FClear.14 mph59%30.33 "Hg10 mi
7:20 pm61 °FClear.14 mph59%30.33 "Hg10 mi
6:50 pm63 °FClear.14 mph59%30.33 "Hg10 mi
6:20 pm63 °FClear.13 mph59%30.33 "Hg10 mi
5:50 pm64 °FSunny.10 mph52%30.33 "Hg10 mi
5:20 pm64 °FSunny.12 mph56%30.33 "Hg10 mi
4:50 pm66 °FSunny.9 mph52%30.33 "Hg10 mi
4:20 pm66 °FSunny.12 mph52%30.33 "Hg10 mi
3:50 pm68 °FSunny.10 mph49%30.36 "Hg10 mi
3:20 pm68 °FPassing clouds.9 mph49%30.36 "HgN/A
2:50 pm68 °FSunny.9 mph49%30.36 "Hg10 mi
2:20 pm68 °FSunny.12 mph49%30.39 "Hg10 mi
1:50 pm66 °FPassing clouds.13 mph52%30.39 "HgN/A
1:20 pm66 °FSunny.12 mph52%30.39 "Hg10 mi
12:50 pm64 °FSunny.15 mph56%30.42 "Hg10 mi
12:20 pm64 °FPassing clouds.12 mph56%30.42 "HgN/A
11:50 am64 °FSunny.12 mph60%30.42 "Hg10 mi
11:20 am61 °FSunny.10 mph63%30.42 "Hg10 mi
10:50 am59 °FSunny.10 mph68%30.45 "Hg10 mi
10:20 am59 °FSunny.12 mph68%30.45 "Hg10 mi
9:50 am57 °FSunny.10 mph72%30.45 "Hg10 mi
9:20 am55 °FSunny.13 mph72%30.45 "Hg10 mi
8:50 am54 °FSunny.12 mph77%30.42 "Hg10 mi
8:20 am52 °FSunny.13 mph82%30.42 "Hg10 mi
7:50 am52 °FSunny.15 mph82%30.42 "Hg10 mi
7:20 am52 °FClear.14 mph82%30.42 "Hg10 mi
6:50 am52 °FClear.14 mph82%30.42 "Hg10 mi
6:20 am52 °FClear.13 mph82%30.42 "Hg10 mi
5:50 am52 °FClear.12 mph82%30.42 "Hg10 mi
5:20 am52 °FClear.13 mph82%30.42 "Hg10 mi
4:50 am52 °FClear.13 mph82%30.42 "Hg10 mi
4:20 am52 °FClear.13 mph82%30.42 "Hg10 mi
3:50 am52 °FClear.12 mph82%30.42 "Hg10 mi
3:20 am54 °FClear.12 mph77%30.45 "Hg10 mi
2:50 am54 °FClear.12 mph77%30.45 "Hg10 mi
2:20 am52 °FClear.10 mph82%30.45 "Hg10 mi
1:50 am54 °FClear.13 mph77%30.45 "Hg10 mi
1:20 am52 °FClear.10 mph77%30.45 "Hg10 mi
12:50 am54 °FClear.10 mph77%30.45 "Hg10 mi
12:20 am54 °FClear.13 mph77%30.42 "Hg10 mi
Weather by CustomWeather, © 2021

See weather overview